createdAt,value
2023-02-02T00:00:55.766Z,3.20
2023-02-02T00:03:22.493Z,3.20
2023-02-02T00:05:52.103Z,3.20
2023-02-02T00:08:20.854Z,3.30
2023-02-02T00:10:47.887Z,3.30
2023-02-02T00:13:14.720Z,3.40
2023-02-02T00:15:41.439Z,3.40
2023-02-02T00:18:08.140Z,3.40
2023-02-02T00:20:34.840Z,3.40
2023-02-02T00:23:01.770Z,3.40
2023-02-02T00:25:28.891Z,3.40
2023-02-02T00:27:56.134Z,3.50
2023-02-02T00:30:23.309Z,3.60
2023-02-02T00:32:50.130Z,3.60
2023-02-02T00:35:16.899Z,3.50
2023-02-02T00:37:43.687Z,3.60
2023-02-02T00:40:11.231Z,3.60
2023-02-02T00:42:37.996Z,3.60
2023-02-02T00:45:05.634Z,3.60
2023-02-02T00:47:38.413Z,3.60
2023-02-02T00:50:05.502Z,3.60
2023-02-02T00:52:32.184Z,3.60
2023-02-02T00:54:58.934Z,3.60
2023-02-02T00:57:25.628Z,3.50
2023-02-02T00:59:52.355Z,3.50
2023-02-02T01:02:19.062Z,3.50
2023-02-02T01:04:45.699Z,3.40
2023-02-02T01:07:12.438Z,3.40
2023-02-02T01:09:39.140Z,3.40
2023-02-02T01:12:06.067Z,3.40
2023-02-02T01:14:32.839Z,3.40
2023-02-02T01:16:59.462Z,3.30
2023-02-02T01:19:26.188Z,3.40
2023-02-02T01:21:52.927Z,3.40
2023-02-02T01:24:19.600Z,3.30
2023-02-02T01:26:46.474Z,3.30
2023-02-02T01:29:13.276Z,3.20
2023-02-02T01:31:40.007Z,3.20
2023-02-02T01:34:06.699Z,3.20
2023-02-02T01:36:33.502Z,3.20
2023-02-02T01:39:00.314Z,3.20
2023-02-02T01:41:27.512Z,3.10
2023-02-02T01:44:00.434Z,3.10
2023-02-02T01:46:36.319Z,3.10
2023-02-02T01:49:19.366Z,3.00
2023-02-02T01:51:53.429Z,3.00
2023-02-02T01:54:30.135Z,3.00
2023-02-02T01:57:01.950Z,3.10
2023-02-02T01:59:30.916Z,3.10
2023-02-02T02:01:58.638Z,3.10
2023-02-02T02:04:27.636Z,3.10
2023-02-02T02:06:54.445Z,3.10
2023-02-02T02:09:21.687Z,3.10
2023-02-02T02:11:48.708Z,3.10
2023-02-02T02:14:16.399Z,3.10
2023-02-02T02:16:58.242Z,3.20
2023-02-02T02:19:36.865Z,3.10
2023-02-02T02:22:16.828Z,3.20
2023-02-02T02:24:58.695Z,3.20
2023-02-02T02:27:37.485Z,3.30
2023-02-02T02:30:32.115Z,3.20
2023-02-02T02:33:21.921Z,3.30
2023-02-02T02:36:04.165Z,3.30
2023-02-02T02:38:44.981Z,3.40
2023-02-02T02:41:21.195Z,3.40
2023-02-02T02:43:54.821Z,3.40
2023-02-02T02:46:22.831Z,3.40
2023-02-02T02:48:49.569Z,3.50
2023-02-02T02:51:42.795Z,3.50
2023-02-02T02:54:14.808Z,3.50
2023-02-02T02:57:18.277Z,3.50
2023-02-02T03:00:16.880Z,3.60
2023-02-02T03:02:58.649Z,3.60
2023-02-02T03:05:30.899Z,3.60
2023-02-02T03:08:20.692Z,3.60
2023-02-02T03:10:48.081Z,3.70
2023-02-02T03:13:15.927Z,3.70
2023-02-02T03:15:46.492Z,3.70
2023-02-02T03:18:15.005Z,3.70
2023-02-02T03:20:44.675Z,3.80
2023-02-02T03:23:11.337Z,3.80
2023-02-02T03:25:38.000Z,3.80
2023-02-02T03:28:06.050Z,3.80
2023-02-02T03:30:33.497Z,3.80
2023-02-02T03:33:00.495Z,3.80
2023-02-02T03:35:27.249Z,3.80
2023-02-02T03:37:53.916Z,3.90
2023-02-02T03:40:20.621Z,3.90
2023-02-02T03:42:47.272Z,3.80
2023-02-02T03:45:14.171Z,3.90
2023-02-02T03:47:40.906Z,3.80
2023-02-02T03:50:09.908Z,3.80
2023-02-02T03:52:36.896Z,3.80
2023-02-02T03:55:04.138Z,3.70
2023-02-02T03:57:30.925Z,3.70
2023-02-02T03:59:58.025Z,3.80
2023-02-02T04:02:24.824Z,3.80
2023-02-02T04:04:51.527Z,3.70
2023-02-02T04:07:18.261Z,3.80
2023-02-02T04:09:44.899Z,3.70
2023-02-02T04:12:11.643Z,3.80
2023-02-02T04:14:38.293Z,3.80
2023-02-02T04:17:04.960Z,3.80
2023-02-02T04:19:31.642Z,3.80
2023-02-02T04:21:58.343Z,3.80
2023-02-02T04:24:25.047Z,3.80
2023-02-02T04:26:51.747Z,3.80
2023-02-02T04:29:18.553Z,3.80
2023-02-02T04:31:45.284Z,3.80
2023-02-02T04:34:12.129Z,3.80
2023-02-02T04:36:38.980Z,3.90
2023-02-02T04:39:05.779Z,3.80
2023-02-02T04:41:32.655Z,3.80
2023-02-02T04:43:59.406Z,3.90
2023-02-02T04:46:26.162Z,3.80
2023-02-02T04:48:52.934Z,3.80
2023-02-02T04:51:19.741Z,3.80
2023-02-02T04:53:46.491Z,3.90
2023-02-02T04:56:15.784Z,3.90
2023-02-02T04:58:43.195Z,3.90
2023-02-02T05:01:19.533Z,3.90
2023-02-02T05:03:47.301Z,3.90
2023-02-02T05:06:16.037Z,3.90
2023-02-02T05:08:43.034Z,4.00
2023-02-02T05:11:16.495Z,3.90
2023-02-02T05:13:54.042Z,3.90
2023-02-02T05:16:22.268Z,3.90
2023-02-02T05:18:54.224Z,3.90
2023-02-02T05:21:21.526Z,3.80
2023-02-02T05:23:48.476Z,3.80
2023-02-02T05:26:19.432Z,3.80
2023-02-02T05:28:46.636Z,3.70
2023-02-02T05:31:13.407Z,3.70
2023-02-02T05:33:40.223Z,3.80
2023-02-02T05:36:07.446Z,3.70
2023-02-02T05:38:34.929Z,3.70
2023-02-02T05:41:02.220Z,3.60
2023-02-02T05:43:31.603Z,3.70
2023-02-02T05:45:58.764Z,3.70
2023-02-02T05:48:25.693Z,3.70
2023-02-02T05:51:10.960Z,3.70
2023-02-02T05:53:37.666Z,3.60
2023-02-02T05:56:04.670Z,3.60
2023-02-02T05:58:31.415Z,3.60
2023-02-02T06:00:58.124Z,3.60
2023-02-02T06:03:24.913Z,3.60
2023-02-02T06:05:51.722Z,3.60
2023-02-02T06:08:18.391Z,3.60
2023-02-02T06:10:45.107Z,3.70
2023-02-02T06:13:12.053Z,3.70
2023-02-02T06:15:38.829Z,3.70
2023-02-02T06:18:05.666Z,3.70
2023-02-02T06:20:32.609Z,3.70
2023-02-02T06:22:59.416Z,3.70
2023-02-02T06:25:26.504Z,3.70
2023-02-02T06:28:00.672Z,3.70
2023-02-02T06:30:28.120Z,3.80
2023-02-02T06:32:54.975Z,3.80
2023-02-02T06:35:21.741Z,3.80
2023-02-02T06:37:48.478Z,3.80
2023-02-02T06:40:15.314Z,3.80
2023-02-02T06:42:42.221Z,3.80
2023-02-02T06:45:09.460Z,3.80
2023-02-02T06:47:36.155Z,3.70
2023-02-02T06:50:03.673Z,3.80
2023-02-02T06:52:30.365Z,3.80
2023-02-02T06:54:56.997Z,3.80
2023-02-02T06:57:23.729Z,3.80
2023-02-02T06:59:50.375Z,3.80
2023-02-02T07:02:17.093Z,3.80
2023-02-02T07:04:43.838Z,3.80
2023-02-02T07:07:10.498Z,3.80
2023-02-02T07:09:37.156Z,3.80
2023-02-02T07:12:03.983Z,3.80
2023-02-02T07:14:30.762Z,3.80
2023-02-02T07:16:57.505Z,3.80
2023-02-02T07:19:24.700Z,3.80
2023-02-02T07:21:51.458Z,3.80
2023-02-02T07:24:18.192Z,3.80
2023-02-02T07:26:45.207Z,3.80
2023-02-02T07:29:13.448Z,3.80
2023-02-02T07:31:40.973Z,3.80
2023-02-02T07:34:07.767Z,3.80
2023-02-02T07:36:34.779Z,3.80
2023-02-02T07:39:01.725Z,3.80
2023-02-02T07:41:28.781Z,3.80
2023-02-02T07:43:55.633Z,3.70
2023-02-02T07:46:22.711Z,3.70
2023-02-02T07:48:49.480Z,3.70
2023-02-02T07:51:17.713Z,3.60
2023-02-02T07:53:45.993Z,3.60
2023-02-02T07:56:15.702Z,3.60
2023-02-02T07:58:43.200Z,3.60
2023-02-02T08:01:13.635Z,3.60
2023-02-02T08:03:41.592Z,3.60
2023-02-02T08:06:19.548Z,3.60
2023-02-02T08:08:47.458Z,3.60
2023-02-02T08:11:16.254Z,3.60
2023-02-02T08:13:44.285Z,3.60
2023-02-02T08:16:12.096Z,3.60
2023-02-02T08:18:38.883Z,3.60
2023-02-02T08:21:07.795Z,3.60
2023-02-02T08:23:35.701Z,3.70
2023-02-02T08:26:10.622Z,3.80
2023-02-02T08:28:38.008Z,3.80
2023-02-02T08:31:12.298Z,3.80
2023-02-02T08:33:39.778Z,3.80
2023-02-02T08:36:14.117Z,3.90
2023-02-02T08:38:41.782Z,3.90
2023-02-02T08:41:10.686Z,3.80
2023-02-02T08:43:37.496Z,3.90
2023-02-02T08:46:07.977Z,3.90
2023-02-02T08:48:35.663Z,3.90
2023-02-02T08:51:03.492Z,3.90
2023-02-02T08:53:30.961Z,3.90
2023-02-02T08:56:03.023Z,3.90
2023-02-02T08:58:30.820Z,3.90
2023-02-02T09:01:08.280Z,4.00
2023-02-02T09:03:35.077Z,4.00
2023-02-02T09:06:10.636Z,4.00
2023-02-02T09:08:37.802Z,4.10
2023-02-02T09:11:18.922Z,4.20
2023-02-02T09:13:47.822Z,4.20
2023-02-02T09:16:16.514Z,4.30
2023-02-02T09:18:43.969Z,4.30
2023-02-02T09:21:13.445Z,4.40
2023-02-02T09:23:42.034Z,4.40
2023-02-02T09:26:13.993Z,4.50
2023-02-02T09:28:42.663Z,4.50
2023-02-02T09:31:10.076Z,4.50
2023-02-02T09:33:37.246Z,4.50
2023-02-02T09:36:17.705Z,4.60
2023-02-02T09:38:44.767Z,4.50
2023-02-02T09:41:39.677Z,4.60
2023-02-02T09:44:21.425Z,4.70
2023-02-02T09:47:12.771Z,4.60
2023-02-02T09:50:05.821Z,4.70
2023-02-02T09:53:10.857Z,4.80
2023-02-02T09:55:41.252Z,4.80
2023-02-02T09:58:11.329Z,4.80
2023-02-02T10:00:46.265Z,4.80
2023-02-02T10:03:42.189Z,4.90
2023-02-02T10:06:22.252Z,4.90
2023-02-02T10:08:57.391Z,4.90
2023-02-02T10:11:52.990Z,4.90
2023-02-02T10:14:27.322Z,4.80
2023-02-02T10:16:56.935Z,4.90
2023-02-02T10:19:26.127Z,4.90
2023-02-02T10:22:03.176Z,4.90
2023-02-02T10:24:31.815Z,4.90
2023-02-02T10:27:02.604Z,4.90
2023-02-02T10:29:48.863Z,5.00
2023-02-02T10:32:23.370Z,5.00
2023-02-02T10:35:12.535Z,5.10
2023-02-02T10:38:03.002Z,5.00
2023-02-02T10:41:02.118Z,5.00
2023-02-02T10:43:47.557Z,5.00
2023-02-02T10:46:17.050Z,5.10
2023-02-02T10:48:47.444Z,5.20
2023-02-02T10:51:23.167Z,5.30
2023-02-02T10:53:51.192Z,5.40
2023-02-02T10:56:22.528Z,5.40
2023-02-02T10:59:09.656Z,5.50
2023-02-02T11:01:36.369Z,5.50
2023-02-02T11:04:03.290Z,5.50
2023-02-02T11:06:30.056Z,5.40
2023-02-02T11:08:57.857Z,5.50
2023-02-02T11:11:29.273Z,5.50
2023-02-02T11:13:59.909Z,5.50
2023-02-02T11:16:41.598Z,5.50
2023-02-02T11:19:18.317Z,5.50
2023-02-02T11:21:55.308Z,5.50
2023-02-02T11:24:24.800Z,5.50
2023-02-02T11:27:25.462Z,5.60
2023-02-02T11:29:58.093Z,5.70
2023-02-02T11:32:30.938Z,5.80
2023-02-02T11:35:06.896Z,5.80
2023-02-02T11:37:35.833Z,5.80
2023-02-02T11:40:29.501Z,5.80
2023-02-02T11:42:58.981Z,5.80
2023-02-02T11:45:34.625Z,5.90
2023-02-02T11:48:06.429Z,5.80
2023-02-02T11:50:34.995Z,5.80
2023-02-02T11:53:03.077Z,5.90
2023-02-02T11:55:32.243Z,5.90
2023-02-02T11:58:20.708Z,5.90
2023-02-02T12:01:02.826Z,5.80
2023-02-02T12:03:33.402Z,5.80
2023-02-02T12:06:01.107Z,5.80
2023-02-02T12:08:29.001Z,5.80
2023-02-02T12:11:00.045Z,5.90
2023-02-02T12:13:50.859Z,6.00
2023-02-02T12:16:36.092Z,5.90
2023-02-02T12:19:17.859Z,5.80
2023-02-02T12:22:11.375Z,5.80
2023-02-02T12:24:49.337Z,5.60
2023-02-02T12:27:24.445Z,5.50
2023-02-02T12:30:21.447Z,5.50
2023-02-02T12:33:01.728Z,5.40
2023-02-02T12:35:47.780Z,5.30
2023-02-02T12:38:43.667Z,5.10
2023-02-02T12:41:30.805Z,5.00
2023-02-02T12:44:05.356Z,5.00
2023-02-02T12:47:13.496Z,5.00
2023-02-02T12:50:20.473Z,5.00
2023-02-02T12:52:58.865Z,5.20
2023-02-02T12:55:35.979Z,5.30
2023-02-02T12:58:32.527Z,5.40
2023-02-02T13:01:01.911Z,5.50
2023-02-02T13:04:25.456Z,5.50
2023-02-02T13:07:11.005Z,5.70
2023-02-02T13:09:49.441Z,5.80
2023-02-02T13:12:21.945Z,5.90
2023-02-02T13:14:59.170Z,6.00
2023-02-02T13:17:42.588Z,6.10
2023-02-02T13:20:21.225Z,6.30
2023-02-02T13:22:51.965Z,6.20
2023-02-02T13:25:30.407Z,6.20
2023-02-02T13:27:59.801Z,6.20
2023-02-02T13:30:38.862Z,6.00
2023-02-02T13:33:15.719Z,6.00
2023-02-02T13:36:23.220Z,6.00
2023-02-02T13:38:50.884Z,5.90
2023-02-02T13:41:17.599Z,5.90
2023-02-02T13:44:06.246Z,5.90
2023-02-02T13:46:57.468Z,6.00
2023-02-02T13:50:02.565Z,6.00
2023-02-02T13:52:56.884Z,5.90
2023-02-02T13:55:24.102Z,5.70
2023-02-02T13:58:20.394Z,5.60
2023-02-02T14:00:53.295Z,5.60
2023-02-02T14:03:33.637Z,5.70
2023-02-02T14:06:16.653Z,5.80
2023-02-02T14:08:47.899Z,5.70
2023-02-02T14:11:39.581Z,5.80
2023-02-02T14:14:21.823Z,5.60
2023-02-02T14:16:51.543Z,5.60
2023-02-02T14:19:40.850Z,5.50
2023-02-02T14:22:11.294Z,5.40
2023-02-02T14:24:40.090Z,5.30
2023-02-02T14:27:09.946Z,5.40
2023-02-02T14:29:47.050Z,5.50
2023-02-02T14:32:26.112Z,5.60
2023-02-02T14:34:54.638Z,5.60
2023-02-02T14:37:24.135Z,5.60
2023-02-02T14:40:06.333Z,5.60
2023-02-02T14:42:45.086Z,5.50
2023-02-02T14:45:11.788Z,5.40
2023-02-02T14:47:53.396Z,5.40
2023-02-02T14:50:38.146Z,5.20
2023-02-02T14:53:06.922Z,5.10
2023-02-02T14:55:49.894Z,5.00
2023-02-02T14:58:24.890Z,4.90
2023-02-02T15:01:21.046Z,4.80
2023-02-02T15:03:54.940Z,4.80
2023-02-02T15:06:37.831Z,4.80
2023-02-02T15:09:22.696Z,4.70
2023-02-02T15:12:01.985Z,4.70
2023-02-02T15:15:03.710Z,4.70
2023-02-02T15:17:40.828Z,4.60
2023-02-02T15:20:55.140Z,4.50
2023-02-02T15:23:43.983Z,4.40
2023-02-02T15:26:19.981Z,4.40
2023-02-02T15:29:03.238Z,4.30
2023-02-02T15:31:33.841Z,4.20
2023-02-02T15:34:25.225Z,4.20
2023-02-02T15:37:02.531Z,4.10
2023-02-02T15:39:33.592Z,4.10
2023-02-02T15:42:07.895Z,4.00
2023-02-02T15:44:37.758Z,3.90
2023-02-02T15:47:15.591Z,3.90
2023-02-02T15:49:42.790Z,3.90
2023-02-02T15:52:26.902Z,3.80
2023-02-02T15:55:00.401Z,3.80
2023-02-02T15:57:36.942Z,3.60
2023-02-02T16:00:25.772Z,3.60
2023-02-02T16:03:29.734Z,3.60
2023-02-02T16:05:58.198Z,3.50
2023-02-02T16:08:28.822Z,3.50
2023-02-02T16:11:11.105Z,3.50
2023-02-02T16:13:39.150Z,3.50
2023-02-02T16:16:21.743Z,3.50
2023-02-02T16:19:00.772Z,3.50
2023-02-02T16:21:28.472Z,3.40
2023-02-02T16:23:56.145Z,3.40
2023-02-02T16:26:28.878Z,3.40
2023-02-02T16:28:55.937Z,3.40
2023-02-02T16:31:22.879Z,3.30
2023-02-02T16:33:49.706Z,3.30
2023-02-02T16:36:25.182Z,3.30
2023-02-02T16:38:54.298Z,3.30
2023-02-02T16:41:33.094Z,3.20
2023-02-02T16:44:28.607Z,3.20
2023-02-02T16:46:55.807Z,3.20
2023-02-02T16:49:24.351Z,3.20
2023-02-02T16:52:23.639Z,3.10
2023-02-02T16:54:55.913Z,3.10
2023-02-02T16:57:34.315Z,3.10
2023-02-02T17:00:08.891Z,3.10
2023-02-02T17:02:40.809Z,3.00
2023-02-02T17:05:19.393Z,2.90
2023-02-02T17:08:04.780Z,2.90
2023-02-02T17:10:37.259Z,2.90
2023-02-02T17:13:32.681Z,2.90
2023-02-02T17:16:00.249Z,2.80
2023-02-02T17:18:27.161Z,2.80
2023-02-02T17:20:56.844Z,2.80
2023-02-02T17:23:26.706Z,2.80
2023-02-02T17:25:54.360Z,2.80
2023-02-02T17:28:25.314Z,2.80
2023-02-02T17:31:03.143Z,2.80
2023-02-02T17:33:34.203Z,2.80
2023-02-02T17:36:02.055Z,2.80
2023-02-02T17:38:29.046Z,2.80
2023-02-02T17:41:01.123Z,2.80
2023-02-02T17:43:32.330Z,2.80
2023-02-02T17:45:59.879Z,2.80
2023-02-02T17:48:31.202Z,2.80
2023-02-02T17:50:59.956Z,2.80
2023-02-02T17:53:26.685Z,2.80
2023-02-02T17:55:53.407Z,2.70
2023-02-02T17:58:20.260Z,2.70
2023-02-02T18:00:52.072Z,2.70
2023-02-02T18:03:21.124Z,2.70
2023-02-02T18:05:48.140Z,2.60
2023-02-02T18:08:15.049Z,2.70
2023-02-02T18:10:43.054Z,2.60
2023-02-02T18:13:18.097Z,2.60
2023-02-02T18:15:45.529Z,2.60
2023-02-02T18:18:12.451Z,2.60
2023-02-02T18:20:47.449Z,2.60
2023-02-02T18:23:15.363Z,2.60
2023-02-02T18:25:42.343Z,2.60
2023-02-02T18:28:10.341Z,2.60
2023-02-02T18:30:41.141Z,2.60
2023-02-02T18:33:12.066Z,2.60
2023-02-02T18:35:46.145Z,2.60
2023-02-02T18:38:13.423Z,2.60
2023-02-02T18:40:40.234Z,2.60
2023-02-02T18:43:07.132Z,2.60
2023-02-02T18:45:33.863Z,2.60
2023-02-02T18:48:00.528Z,2.60
2023-02-02T18:50:27.211Z,2.60
2023-02-02T18:52:53.887Z,2.60
2023-02-02T18:55:20.614Z,2.60
2023-02-02T18:57:47.371Z,2.60
2023-02-02T19:00:14.736Z,2.60
2023-02-02T19:02:41.381Z,2.50
2023-02-02T19:05:08.234Z,2.60
2023-02-02T19:07:34.916Z,2.50
2023-02-02T19:10:01.651Z,2.50
2023-02-02T19:12:28.337Z,2.50
2023-02-02T19:14:56.067Z,2.50
2023-02-02T19:17:23.450Z,2.50
2023-02-02T19:19:50.566Z,2.50
2023-02-02T19:22:23.093Z,2.50
2023-02-02T19:24:50.959Z,2.50
2023-02-02T19:27:25.695Z,2.40
2023-02-02T19:29:56.108Z,2.40
2023-02-02T19:32:26.718Z,2.40
2023-02-02T19:34:57.657Z,2.40
2023-02-02T19:37:29.833Z,2.40
2023-02-02T19:40:02.504Z,2.30
2023-02-02T19:42:29.273Z,2.40
2023-02-02T19:44:56.879Z,2.30
2023-02-02T19:47:33.426Z,2.30
2023-02-02T19:50:14.589Z,2.30
2023-02-02T19:52:42.583Z,2.30
2023-02-02T19:55:20.905Z,2.40
2023-02-02T19:57:47.586Z,2.40
2023-02-02T20:00:24.870Z,2.40
2023-02-02T20:03:02.942Z,2.40
2023-02-02T20:05:35.971Z,2.40
2023-02-02T20:08:19.456Z,2.40
2023-02-02T20:10:46.652Z,2.40
2023-02-02T20:13:19.452Z,2.40
2023-02-02T20:15:46.788Z,2.40
2023-02-02T20:18:21.615Z,2.40
2023-02-02T20:20:54.320Z,2.40
2023-02-02T20:23:41.807Z,2.40
2023-02-02T20:26:28.255Z,2.40
2023-02-02T20:28:58.208Z,2.40
2023-02-02T20:31:35.042Z,2.40
2023-02-02T20:34:01.843Z,2.30
2023-02-02T20:36:40.104Z,2.30
2023-02-02T20:39:29.850Z,2.30
2023-02-02T20:41:56.911Z,2.30
2023-02-02T20:44:25.332Z,2.30
2023-02-02T20:46:52.173Z,2.40
2023-02-02T20:49:18.918Z,2.40
2023-02-02T20:51:45.584Z,2.40
2023-02-02T20:54:12.609Z,2.40
2023-02-02T20:56:39.315Z,2.40
2023-02-02T20:59:07.405Z,2.40
2023-02-02T21:01:34.361Z,2.40
2023-02-02T21:04:01.499Z,2.40
2023-02-02T21:06:28.849Z,2.40
2023-02-02T21:08:55.637Z,2.40
2023-02-02T21:11:22.394Z,2.40
2023-02-02T21:13:49.170Z,2.40
2023-02-02T21:16:16.173Z,2.40
2023-02-02T21:18:42.953Z,2.40
2023-02-02T21:21:09.700Z,2.40
2023-02-02T21:23:36.432Z,2.40
2023-02-02T21:26:03.266Z,2.40
2023-02-02T21:28:30.022Z,2.40
2023-02-02T21:30:56.805Z,2.40
2023-02-02T21:33:23.542Z,2.40
2023-02-02T21:35:50.266Z,2.40
2023-02-02T21:38:16.999Z,2.30
2023-02-02T21:40:43.683Z,2.40
2023-02-02T21:43:18.085Z,2.40
2023-02-02T21:45:50.562Z,2.40
2023-02-02T21:48:27.569Z,2.40
2023-02-02T21:50:54.272Z,2.40
2023-02-02T21:53:25.046Z,2.30
2023-02-02T21:55:57.546Z,2.40
2023-02-02T21:58:37.199Z,2.30
2023-02-02T22:01:25.749Z,2.30
2023-02-02T22:03:52.562Z,2.40
2023-02-02T22:06:19.229Z,2.40
2023-02-02T22:08:46.371Z,2.40
2023-02-02T22:11:28.411Z,2.40
2023-02-02T22:14:01.734Z,2.40
2023-02-02T22:16:28.486Z,2.40
2023-02-02T22:18:55.581Z,2.40
2023-02-02T22:21:32.511Z,2.50
2023-02-02T22:24:00.660Z,2.40
2023-02-02T22:26:32.988Z,2.50
2023-02-02T22:28:59.806Z,2.50
2023-02-02T22:31:26.575Z,2.50
2023-02-02T22:33:53.333Z,2.50
2023-02-02T22:36:20.095Z,2.50
2023-02-02T22:38:46.744Z,2.40
2023-02-02T22:41:13.471Z,2.40
2023-02-02T22:43:40.168Z,2.40
2023-02-02T22:46:06.927Z,2.40
2023-02-02T22:48:33.733Z,2.50
2023-02-02T22:51:00.468Z,2.50
2023-02-02T22:53:27.236Z,2.50
2023-02-02T22:55:53.973Z,2.50
2023-02-02T22:58:20.669Z,2.50
2023-02-02T23:00:47.316Z,2.60
2023-02-02T23:03:13.970Z,2.60
2023-02-02T23:05:40.679Z,2.60
2023-02-02T23:08:07.433Z,2.60
2023-02-02T23:10:34.231Z,2.60
2023-02-02T23:13:02.440Z,2.60
2023-02-02T23:15:29.288Z,2.60
2023-02-02T23:17:56.224Z,2.60
2023-02-02T23:20:23.535Z,2.60
2023-02-02T23:22:51.046Z,2.60
2023-02-02T23:25:18.085Z,2.60
2023-02-02T23:27:45.170Z,2.60
2023-02-02T23:30:13.251Z,2.60
2023-02-02T23:32:40.135Z,2.60
2023-02-02T23:35:10.847Z,2.70
2023-02-02T23:37:37.900Z,2.70
2023-02-02T23:40:05.304Z,2.70
2023-02-02T23:42:35.043Z,2.70
2023-02-02T23:45:01.736Z,2.70
2023-02-02T23:47:28.627Z,2.70
2023-02-02T23:49:55.726Z,2.60
2023-02-02T23:52:22.383Z,2.60
2023-02-02T23:54:49.139Z,2.70
2023-02-02T23:57:16.212Z,2.70
2023-02-02T23:59:42.914Z,2.70
